Terminal Aerodrome Forecast
Issued by NWS

Home | Current Version | Previous Version | Graphics & Text | Print | Product List | Glossary On
Versions: 1 2 3 4 5 6 7 8 9 10 11 12 13 14 15 16 17 18
000
FTUS43 KUNR 251700
TAFGCC
TAF
KGCC 251720Z 2518/2618 31018G28KT 3SM -SN OVC020
      TEMPO 2518/2522 1SM -SN BR SCT007 OVC015
     FM260300 32012KT 4SM BR OVC025=

USA.gov is the U.S. government's official web portal to all federal, state and local government web resources and services.